Sharon, Missouri
Current Conditions -  °F | °C
As of 3:55 PM on Saturday 25 Oct 2014 (Local Time) from KVER Reporting Station
Clear Clear  
Wind Chill: 80°   Ceiling: Unl
Heat Index: 80°   Visibility: 10mi
Dew Point: 51°   Wind: 0mph
Humidity: 36%   Direction: NA
Pressure: 30.02"   Gusts: NA
Location:  39.2023°N, 93.0277°W
Report Text: KVER 252055Z AUTO 00000KT 10SM CLR 27/10 A3002 RMK AO2 T02660104
Loading
Personal Weather Stations






























Interactive Weather Map
Tropical Storm Tracking
New forecast layout! Learn more

10-Day Weather Forecast

Advertisements
Track Severe Weather on mobile